Time;durP1;ratioP1;P1;durP2;ratioP2;P2;SDS_P1;SDS_P2;PMS_P1;PMS_P2;Temp;Humidity;BMP_temperature;BMP_pressure;BME280_temperature;BME280_humidity;BME280_pressure;Samples;Min_cycle;Max_cycle;Signal;HPM_P1;HPM_P2
2022/02/20 00:00:03;;;;;;;;;;;;;;;;;;5094490;28;1141;-73
2022/02/20 00:02:38;;;;;;;;;;;;;;;;;;5094783;28;727;-73
2022/02/20 00:05:04;;;;;;;;;;;;;;;;;;5094324;28;1968;-73
2022/02/20 00:07:30;;;;;;;;;;;;;;;;;;5094619;28;1391;-73
2022/02/20 00:09:56;;;;;;;;;;;;;;;;;;5075962;28;1130;-73
2022/02/20 00:12:23;;;;;;;;;;;;;;;;;;5094716;28;861;-74
2022/02/20 00:14:49;;;;;;;;;;;;;;;;;;5094263;28;1121;-73
2022/02/20 00:17:16;;;;;;;;;;;;;;;;;;5094355;28;1325;-73
2022/02/20 00:19:44;;;;;;;;;;;;;;;;;;5093904;28;1082;-73
2022/02/20 00:22:10;;;;;;;;;;;;;;;;;;5094499;28;994;-73
2022/02/20 00:24:37;;;;;;;;;;;;;;;;;;5094230;28;788;-73
2022/02/20 00:27:03;;;;;;;;;;;;;;;;;;5093857;28;1910;-73
2022/02/20 00:29:29;;;;;;;;;;;;;;;;;;5094030;28;836;-72
2022/02/20 00:31:56;;;;;;;;;;;;;;;;;;5093793;28;884;-73
2022/02/20 00:34:24;;;;;;;;;;;;;;;;;;5094063;28;833;-73
2022/02/20 00:36:50;;;;;;;;;;;;;;;;;;5093682;28;702;-73
2022/02/20 00:39:17;;;;;;;;;;;;;;;;;;5093714;28;933;-73
2022/02/20 00:41:43;;;;;;;;;;;;;;;;;;5093829;28;860;-73
2022/02/20 00:44:10;;;;;;;;;;;;;;;;;;5094764;28;805;-73
2022/02/20 00:46:36;;;;;;;;;;;;;;;;;;5093552;28;1910;-73
2022/02/20 00:49:02;;;;;;;;;;;;;;;;;;5074601;28;1517;-73
2022/02/20 00:51:30;;;;;;;;;;;;;;;;;;5075359;28;1376;-73
2022/02/20 00:53:56;;;;;;;;;;;;;;;;;;5075295;28;1385;-73
2022/02/20 00:56:23;;;;;;;;;;;;;;;;;;5075295;28;1385;-73
2022/02/20 00:58:49;;;;;;;;;;;;;;;;;;5075133;28;1476;-73
2022/02/20 01:01:15;;;;;;;;;;;;;;;;;;5074968;28;1231;-74
2022/02/20 01:03:43;;;;;;;;;;;;;;;;;;5075235;28;1685;-72
2022/02/20 01:06:10;;;;;;;;;;;;;;;;;;5093194;28;1914;-72
2022/02/20 01:08:38;;;;;;;;;;;;;;;;;;5075028;28;1327;-73
2022/02/20 01:11:04;;;;;;;;;;;;;;;;;;5074922;28;806;-73
2022/02/20 01:13:30;;;;;;;;;;;;;;;;;;5075003;28;1143;-73
2022/02/20 01:15:56;;;;;;;;;;;;;;;;;;5074936;28;1295;-73
2022/02/20 01:18:22;;;;;;;;;;;;;;;;;;5093003;28;1317;-73
2022/02/20 01:20:49;;;;;;;;;;;;;;;;;;5074375;28;1190;-73
2022/02/20 01:23:15;;;;;;;;;;;;;;;;;;5092340;28;1145;-73
2022/02/20 01:25:42;;;;;;;;;;;;;;;;;;5092776;28;1971;-73
2022/02/20 01:28:09;;;;;;;;;;;;;;;;;;5092684;28;1413;-73
2022/02/20 01:30:35;;;;;;;;;;;;;;;;;;5074454;28;1198;-72
2022/02/20 01:33:02;;;;;;;;;;;;;;;;;;5092664;28;829;-72
2022/02/20 01:35:28;;;;;;;;;;;;;;;;;;5073328;28;1359;-73
2022/02/20 01:37:55;;;;;;;;;;;;;;;;;;5076588;28;1463;-73
2022/02/20 01:40:26;;;;;;;;;;;;;;;;;;5074381;28;1458;-73
2022/02/20 01:42:54;;;;;;;;;;;;;;;;;;5074640;28;1164;-73
2022/02/20 01:45:20;;;;;;;;;;;;;;;;;;5074812;28;1910;-73
2022/02/20 01:47:46;;;;;;;;;;;;;;;;;;5092579;28;1327;-72
2022/02/20 01:50:15;;;;;;;;;;;;;;;;;;5092309;28;1086;-73
2022/02/20 01:52:45;;;;;;;;;;;;;;;;;;5074315;28;1451;-73
2022/02/20 01:55:12;;;;;;;;;;;;;;;;;;5074145;28;1207;-73
2022/02/20 01:58:03;;;;;;;;;;;;;;;;;;5083703;28;1374;-73
2022/02/20 02:00:55;;;;;;;;;;;;;;;;;;5073148;28;1446;-73
2022/02/20 02:03:41;;;;;;;;;;;;;;;;;;5092253;28;833;-73
2022/02/20 02:06:13;;;;;;;;;;;;;;;;;;5074208;28;1918;-73
2022/02/20 02:08:40;;;;;;;;;;;;;;;;;;5074010;28;1396;-73
2022/02/20 02:11:11;;;;;;;;;;;;;;;;;;5073805;28;1405;-73
2022/02/20 02:13:57;;;;;;;;;;;;;;;;;;5092335;28;623;-73
2022/02/20 02:16:52;;;;;;;;;;;;;;;;;;5082644;28;1318;-73
2022/02/20 02:19:30;;;;;;;;;;;;;;;;;;5073835;28;1563;-73
2022/02/20 02:22:10;;;;;;;;;;;;;;;;;;5073790;28;1523;-74
2022/02/20 02:24:56;;;;;;;;;;;;;;;;;;5091968;28;620;-73
2022/02/20 02:27:40;;;;;;;;;;;;;;;;;;5091802;28;1910;-73
2022/02/20 02:30:14;;;;;;;;;;;;;;;;;;5073564;28;1226;-73
2022/02/20 02:32:40;;;;;;;;;;;;;;;;;;5073663;28;1379;-73
2022/02/20 02:35:10;;;;;;;;;;;;;;;;;;5073701;28;1176;-74
2022/02/20 02:37:38;;;;;;;;;;;;;;;;;;5073302;28;1344;-74
2022/02/20 02:40:05;;;;;;;;;;;;;;;;;;5073248;28;1230;-74
2022/02/20 02:42:31;;;;;;;;;;;;;;;;;;5073679;28;1373;-74
2022/02/20 02:44:58;;;;;;;;;;;;;;;;;;5073595;28;1332;-74
2022/02/20 02:47:24;;;;;;;;;;;;;;;;;;5073459;28;1930;-73
2022/02/20 02:49:50;;;;;;;;;;;;;;;;;;5073087;28;1329;-74
2022/02/20 02:52:17;;;;;;;;;;;;;;;;;;5073522;28;1215;-74
2022/02/20 02:54:44;;;;;;;;;;;;;;;;;;5073304;28;1186;-74
2022/02/20 02:57:12;;;;;;;;;;;;;;;;;;5073337;28;1400;-74
2022/02/20 02:59:38;;;;;;;;;;;;;;;;;;5073052;28;1225;-73
2022/02/20 03:02:06;;;;;;;;;;;;;;;;;;5090086;28;747;-73
2022/02/20 03:04:32;;;;;;;;;;;;;;;;;;5076764;28;1390;-74
2022/02/20 03:06:58;;;;;;;;;;;;;;;;;;5070719;28;1983;-74
2022/02/20 03:09:25;;;;;;;;;;;;;;;;;;5070736;28;1323;-74
2022/02/20 03:11:53;;;;;;;;;;;;;;;;;;5070246;28;2329;-74
2022/02/20 03:14:25;;;;;;;;;;;;;;;;;;5070528;28;1457;-73
2022/02/20 03:16:53;;;;;;;;;;;;;;;;;;5070658;28;1311;-73
2022/02/20 03:19:20;;;;;;;;;;;;;;;;;;5089077;28;1134;-74
2022/02/20 03:21:46;;;;;;;;;;;;;;;;;;5070509;28;1250;-74
2022/02/20 03:24:18;;;;;;;;;;;;;;;;;;5070814;28;1492;-74
2022/02/20 03:26:47;;;;;;;;;;;;;;;;;;5070383;28;1988;-73
2022/02/20 03:29:15;;;;;;;;;;;;;;;;;;5070387;28;1353;-74
2022/02/20 03:31:42;;;;;;;;;;;;;;;;;;5070764;28;1094;-74
2022/02/20 03:34:09;;;;;;;;;;;;;;;;;;5070711;28;1249;-74
2022/02/20 03:36:36;;;;;;;;;;;;;;;;;;5077874;28;995;-73
2022/02/20 03:39:12;;;;;;;;;;;;;;;;;;5086259;28;2210;-74
2022/02/20 03:41:39;;;;;;;;;;;;;;;;;;5092274;28;1342;-72
2022/02/20 03:44:07;;;;;;;;;;;;;;;;;;5084761;28;1330;-75
2022/02/20 03:46:51;;;;;;;;;;;;;;;;;;5092734;28;1918;-74
2022/02/20 03:49:17;;;;;;;;;;;;;;;;;;5092794;28;1518;-74
2022/02/20 03:52:11;;;;;;;;;;;;;;;;;;5093016;28;1230;-75
2022/02/20 03:54:46;;;;;;;;;;;;;;;;;;5093202;28;1267;-74
2022/02/20 03:57:12;;;;;;;;;;;;;;;;;;5092796;28;1346;-74
2022/02/20 04:00:02;;;;;;;;;;;;;;;;;;5110781;28;1053;-74
2022/02/20 04:02:34;;;;;;;;;;;;;;;;;;5111296;28;781;-75
2022/02/20 04:05:01;;;;;;;;;;;;;;;;;;5092854;28;1295;-73
2022/02/20 04:07:27;;;;;;;;;;;;;;;;;;5092614;28;1922;-74
2022/02/20 04:09:53;;;;;;;;;;;;;;;;;;5092590;28;1321;-74
2022/02/20 04:12:19;;;;;;;;;;;;;;;;;;5092720;28;1362;-74
2022/02/20 04:14:47;;;;;;;;;;;;;;;;;;5092786;28;1315;-73
2022/02/20 04:17:13;;;;;;;;;;;;;;;;;;5092619;28;1333;-74
2022/02/20 04:19:44;;;;;;;;;;;;;;;;;;5092342;28;1282;-74
2022/02/20 04:22:11;;;;;;;;;;;;;;;;;;5092743;28;1430;-74
2022/02/20 04:24:37;;;;;;;;;;;;;;;;;;5096403;28;1099;-74
2022/02/20 04:27:08;;;;;;;;;;;;;;;;;;5096372;28;1977;-74
2022/02/20 04:29:40;;;;;;;;;;;;;;;;;;5096043;28;1534;-74
2022/02/20 04:32:07;;;;;;;;;;;;;;;;;;5096310;28;1388;-74
2022/02/20 04:34:34;;;;;;;;;;;;;;;;;;5095976;28;1548;-75
2022/02/20 04:37:01;;;;;;;;;;;;;;;;;;5114238;28;1281;-74
2022/02/20 04:39:30;;;;;;;;;;;;;;;;;;5096103;28;1542;-71
2022/02/20 04:41:59;;;;;;;;;;;;;;;;;;5096162;28;1449;-74
2022/02/20 04:44:37;;;;;;;;;;;;;;;;;;5096188;28;1579;-74
2022/02/20 04:47:03;;;;;;;;;;;;;;;;;;5095955;28;1973;-74
2022/02/20 04:49:31;;;;;;;;;;;;;;;;;;5095774;28;1454;-72
2022/02/20 04:52:15;;;;;;;;;;;;;;;;;;5095829;28;1471;-74
2022/02/20 04:55:02;;;;;;;;;;;;;;;;;;5095918;28;1498;-73
2022/02/20 04:57:31;;;;;;;;;;;;;;;;;;5095754;28;1316;-73
2022/02/20 04:59:58;;;;;;;;;;;;;;;;;;5095424;28;1284;-74
2022/02/20 05:02:31;;;;;;;;;;;;;;;;;;5095776;28;1300;-74
2022/02/20 05:04:57;;;;;;;;;;;;;;;;;;5113943;28;809;-74
2022/02/20 05:07:25;;;;;;;;;;;;;;;;;;5095327;28;1917;-73
2022/02/20 05:09:51;;;;;;;;;;;;;;;;;;5088967;28;1985;-74
2022/02/20 05:12:17;;;;;;;;;;;;;;;;;;5075158;28;1227;-74
2022/02/20 05:14:43;;;;;;;;;;;;;;;;;;5075600;28;1357;-74
2022/02/20 05:17:30;;;;;;;;;;;;;;;;;;5093433;28;1400;-75
2022/02/20 05:20:00;;;;;;;;;;;;;;;;;;5075531;28;1701;-74
2022/02/20 05:22:27;;;;;;;;;;;;;;;;;;5075168;28;1274;-74
2022/02/20 05:24:57;;;;;;;;;;;;;;;;;;5075420;28;1325;-75
2022/02/20 05:27:25;;;;;;;;;;;;;;;;;;5075044;28;1910;-75
2022/02/20 05:29:54;;;;;;;;;;;;;;;;;;5074795;28;1375;-74
2022/02/20 05:32:24;;;;;;;;;;;;;;;;;;5075012;28;1471;-74
2022/02/20 05:34:57;;;;;;;;;;;;;;;;;;5074798;28;919;-74
2022/02/20 05:37:24;;;;;;;;;;;;;;;;;;5093672;28;1603;-74
2022/02/20 05:39:52;;;;;;;;;;;;;;;;;;5094889;28;1266;-74
2022/02/20 05:42:19;;;;;;;;;;;;;;;;;;5078716;28;1560;-74
2022/02/20 05:44:56;;;;;;;;;;;;;;;;;;5075865;28;1226;-74
2022/02/20 05:47:22;;;;;;;;;;;;;;;;;;5074635;28;1922;-74
2022/02/20 05:49:50;;;;;;;;;;;;;;;;;;5074303;28;1183;-73
2022/02/20 05:52:17;;;;;;;;;;;;;;;;;;5074722;28;1439;-74
2022/02/20 05:54:45;;;;;;;;;;;;;;;;;;5074411;28;1343;-72
2022/02/20 05:57:16;;;;;;;;;;;;;;;;;;5074237;28;1356;-73
2022/02/20 05:59:54;;;;;;;;;;;;;;;;;;5074046;28;1061;-74
2022/02/20 06:02:20;;;;;;;;;;;;;;;;;;5074334;28;1161;-74
2022/02/20 06:04:48;;;;;;;;;;;;;;;;;;5074282;28;1204;-74
2022/02/20 06:07:30;;;;;;;;;;;;;;;;;;5074136;28;1910;-73
2022/02/20 06:10:11;;;;;;;;;;;;;;;;;;5074072;28;1178;-74
2022/02/20 06:13:02;;;;;;;;;;;;;;;;;;5063568;28;1175;-74
2022/02/20 06:15:47;;;;;;;;;;;;;;;;;;5092547;28;652;-74
2022/02/20 06:18:22;;;;;;;;;;;;;;;;;;5073936;28;1483;-73
2022/02/20 06:21:11;;;;;;;;;;;;;;;;;;5073573;28;1211;-73
2022/02/20 06:23:49;;;;;;;;;;;;;;;;;;5074169;28;896;-74
2022/02/20 06:26:24;;;;;;;;;;;;;;;;;;5073835;28;1308;-74
2022/02/20 06:28:51;;;;;;;;;;;;;;;;;;5073515;28;1981;-71
2022/02/20 06:31:20;;;;;;;;;;;;;;;;;;5073248;28;1319;-74
2022/02/20 06:33:47;;;;;;;;;;;;;;;;;;5073903;28;1369;-74
2022/02/20 06:36:14;;;;;;;;;;;;;;;;;;5073725;28;1511;-74
2022/02/20 06:38:44;;;;;;;;;;;;;;;;;;5073388;28;1521;-72
2022/02/20 06:41:10;;;;;;;;;;;;;;;;;;5073342;28;1207;-74
2022/02/20 06:43:43;;;;;;;;;;;;;;;;;;5072659;28;944;-71
2022/02/20 06:46:49;;;;;;;;;;;;;;;;;;5090079;28;1971;-75
2022/02/20 06:49:41;;;;;;;;;;;;;;;;;;5065212;28;1321;-75
2022/02/20 06:52:27;;;;;;;;;;;;;;;;;;5095830;28;1593;-75
2022/02/20 06:55:16;;;;;;;;;;;;;;;;;;5103754;28;1179;-75
2022/02/20 06:58:05;;;;;;;;;;;;;;;;;;5091495;28;1423;-75
2022/02/20 07:00:32;;;;;;;;;;;;;;;;;;5076038;28;1473;-74
2022/02/20 07:03:00;;;;;;;;;;;;;;;;;;5097853;28;1251;-74
2022/02/20 07:05:26;;;;;;;;;;;;;;;;;;5099835;28;1277;-75
2022/02/20 07:07:52;;;;;;;;;;;;;;;;;;5100674;28;1922;-75
2022/02/20 07:10:18;;;;;;;;;;;;;;;;;;5098700;28;1198;-75
2022/02/20 07:12:44;;;;;;;;;;;;;;;;;;5103223;28;1142;-75
2022/02/20 07:15:11;;;;;;;;;;;;;;;;;;5099458;28;1475;-74
2022/02/20 07:17:37;;;;;;;;;;;;;;;;;;5080453;28;1430;-74
2022/02/20 07:20:06;;;;;;;;;;;;;;;;;;5097751;28;1214;-75
2022/02/20 07:22:33;;;;;;;;;;;;;;;;;;5081024;28;1297;-74
2022/02/20 07:24:59;;;;;;;;;;;;;;;;;;5094878;28;1480;-74
2022/02/20 07:27:25;;;;;;;;;;;;;;;;;;5104136;28;2143;-73
2022/02/20 07:29:52;;;;;;;;;;;;;;;;;;5091496;28;1499;-74
2022/02/20 07:32:18;;;;;;;;;;;;;;;;;;5109488;28;875;-74
2022/02/20 07:34:44;;;;;;;;;;;;;;;;;;5107438;28;1492;-73
2022/02/20 07:37:12;;;;;;;;;;;;;;;;;;5100562;28;1496;-73
2022/02/20 07:39:38;;;;;;;;;;;;;;;;;;5107054;28;1586;-73
2022/02/20 07:42:04;;;;;;;;;;;;;;;;;;5105033;28;1427;-73
2022/02/20 07:44:34;;;;;;;;;;;;;;;;;;5090829;28;854;-74
2022/02/20 07:47:00;;;;;;;;;;;;;;;;;;5103269;28;1459;-73
2022/02/20 07:49:26;;;;;;;;;;;;;;;;;;5068400;28;1999;-73
2022/02/20 07:51:53;;;;;;;;;;;;;;;;;;5094596;28;1523;-73
2022/02/20 07:54:20;;;;;;;;;;;;;;;;;;5109147;28;928;-73
2022/02/20 07:56:46;;;;;;;;;;;;;;;;;;5100768;28;1476;-74
2022/02/20 07:59:13;;;;;;;;;;;;;;;;;;5075362;28;1388;-73
2022/02/20 08:01:39;;;;;;;;;;;;;;;;;;5093802;28;1495;-73
2022/02/20 08:04:05;;;;;;;;;;;;;;;;;;5092745;28;1233;-73
2022/02/20 08:06:31;;;;;;;;;;;;;;;;;;5098194;28;1531;-73
2022/02/20 08:09:01;;;;;;;;;;;;;;;;;;5081343;28;1918;-75
2022/02/20 08:11:28;;;;;;;;;;;;;;;;;;5076181;28;1468;-73
2022/02/20 08:13:54;;;;;;;;;;;;;;;;;;5092561;28;817;-74
2022/02/20 08:16:21;;;;;;;;;;;;;;;;;;5103561;28;1457;-74
2022/02/20 08:18:47;;;;;;;;;;;;;;;;;;5105267;28;1454;-74
2022/02/20 08:21:14;;;;;;;;;;;;;;;;;;5093436;28;1444;-74
2022/02/20 08:23:41;;;;;;;;;;;;;;;;;;5104444;28;1539;-74
2022/02/20 08:26:07;;;;;;;;;;;;;;;;;;5094732;28;1457;-75
2022/02/20 08:28:35;;;;;;;;;;;;;;;;;;5086253;28;1909;-74
2022/02/20 08:31:02;;;;;;;;;;;;;;;;;;5076178;28;1673;-74
2022/02/20 08:33:28;;;;;;;;;;;;;;;;;;5104303;28;1464;-74
2022/02/20 08:35:54;;;;;;;;;;;;;;;;;;5103378;28;1540;-74
2022/02/20 08:38:21;;;;;;;;;;;;;;;;;;5094907;28;1590;-74
2022/02/20 08:40:47;;;;;;;;;;;;;;;;;;5099239;28;1480;-74
2022/02/20 08:43:13;;;;;;;;;;;;;;;;;;5083358;28;1571;-74
2022/02/20 08:45:41;;;;;;;;;;;;;;;;;;5113661;28;1524;-75
2022/02/20 08:48:07;;;;;;;;;;;;;;;;;;5104022;28;1918;-72
2022/02/20 08:50:33;;;;;;;;;;;;;;;;;;5084243;28;1270;-74
2022/02/20 08:52:59;;;;;;;;;;;;;;;;;;5094098;28;1082;-71
2022/02/20 08:55:27;;;;;;;;;;;;;;;;;;5102842;28;1496;-71
2022/02/20 08:57:53;;;;;;;;;;;;;;;;;;5101511;28;1535;-70
2022/02/20 09:00:19;;;;;;;;;;;;;;;;;;5110966;28;1575;-71
2022/02/20 09:02:47;;;;;;;;;;;;;;;;;;5110710;28;1464;-72
2022/02/20 09:05:14;;;;;;;;;;;;;;;;;;5105400;28;1521;-72
2022/02/20 09:07:40;;;;;;;;;;;;;;;;;;5111920;28;1914;-70
2022/02/20 09:10:08;;;;;;;;;;;;;;;;;;5112336;28;1160;-71
2022/02/20 09:12:34;;;;;;;;;;;;;;;;;;5110196;28;1119;-71
2022/02/20 09:15:01;;;;;;;;;;;;;;;;;;5095000;28;1257;-72
2022/02/20 09:17:27;;;;;;;;;;;;;;;;;;5113509;28;1293;-71
2022/02/20 09:19:55;;;;;;;;;;;;;;;;;;5113365;28;852;-71
2022/02/20 09:22:21;;;;;;;;;;;;;;;;;;5113579;28;1093;-70
2022/02/20 09:24:47;;;;;;;;;;;;;;;;;;5113237;28;684;-71
2022/02/20 09:27:13;;;;;;;;;;;;;;;;;;5095273;28;1272;-72
2022/02/20 09:29:39;;;;;;;;;;;;;;;;;;5112469;28;1918;-69
2022/02/20 09:32:06;;;;;;;;;;;;;;;;;;5113391;28;986;-71
2022/02/20 09:34:32;;;;;;;;;;;;;;;;;;5099489;28;1542;-71
2022/02/20 09:37:00;;;;;;;;;;;;;;;;;;5093347;28;1322;-71
2022/02/20 09:39:26;;;;;;;;;;;;;;;;;;5092958;28;967;-70
2022/02/20 09:41:52;;;;;;;;;;;;;;;;;;5110274;28;2233;-72
2022/02/20 09:44:18;;;;;;;;;;;;;;;;;;5104634;28;1220;-72
2022/02/20 09:46:45;;;;;;;;;;;;;;;;;;5099951;28;1216;-71
2022/02/20 09:49:11;;;;;;;;;;;;;;;;;;5092437;28;1977;-72
2022/02/20 09:51:38;;;;;;;;;;;;;;;;;;5092152;28;865;-72
2022/02/20 09:54:05;;;;;;;;;;;;;;;;;;5092754;28;814;-71
2022/02/20 09:56:32;;;;;;;;;;;;;;;;;;5092433;28;1050;-71
2022/02/20 09:58:58;;;;;;;;;;;;;;;;;;5092313;28;1262;-72
2022/02/20 10:01:24;;;;;;;;;;;;;;;;;;5092259;28;956;-71
2022/02/20 10:03:50;;;;;;;;;;;;;;;;;;5092328;28;1110;-72
2022/02/20 10:06:17;;;;;;;;;;;;;;;;;;5073980;28;1376;-71
2022/02/20 10:08:44;;;;;;;;;;;;;;;;;;5091887;28;1981;-71
2022/02/20 10:11:15;;;;;;;;;;;;;;;;;;5091917;28;872;-69
2022/02/20 10:13:42;;;;;;;;;;;;;;;;;;5092288;28;1074;-72
2022/02/20 10:16:21;;;;;;;;;;;;;;;;;;5092251;28;975;-71
2022/02/20 10:19:00;;;;;;;;;;;;;;;;;;5092087;28;1356;-72
2022/02/20 10:21:46;;;;;;;;;;;;;;;;;;5091383;28;1437;-72
2022/02/20 10:24:31;;;;;;;;;;;;;;;;;;5092293;28;683;-71
2022/02/20 10:27:19;;;;;;;;;;;;;;;;;;5092321;28;1443;-71
2022/02/20 10:30:11;;;;;;;;;;;;;;;;;;5091539;28;1937;-72
2022/02/20 10:32:37;;;;;;;;;;;;;;;;;;5091552;28;1121;-72
2022/02/20 10:35:07;;;;;;;;;;;;;;;;;;5092026;28;963;-71
2022/02/20 10:37:33;;;;;;;;;;;;;;;;;;5091508;28;1335;-70
2022/02/20 10:39:59;;;;;;;;;;;;;;;;;;5073376;28;1173;-71
2022/02/20 10:42:27;;;;;;;;;;;;;;;;;;5091520;28;1027;-71
2022/02/20 10:44:54;;;;;;;;;;;;;;;;;;5091609;28;1090;-71
2022/02/20 10:47:21;;;;;;;;;;;;;;;;;;5091460;28;1398;-71
2022/02/20 10:49:47;;;;;;;;;;;;;;;;;;5072884;28;1922;-71
2022/02/20 10:52:21;;;;;;;;;;;;;;;;;;5091656;28;1468;-71
2022/02/20 10:55:04;;;;;;;;;;;;;;;;;;5092569;28;1357;-71
2022/02/20 10:57:34;;;;;;;;;;;;;;;;;;5103238;28;1387;-70
2022/02/20 11:00:02;;;;;;;;;;;;;;;;;;5111596;28;1129;-71
2022/02/20 11:02:28;;;;;;;;;;;;;;;;;;5092205;28;1445;-72
2022/02/20 11:04:54;;;;;;;;;;;;;;;;;;5091620;28;1097;-72
2022/02/20 11:07:21;;;;;;;;;;;;;;;;;;5091810;28;1402;-71
2022/02/20 11:09:48;;;;;;;;;;;;;;;;;;5089648;28;1909;-71
2022/02/20 11:12:14;;;;;;;;;;;;;;;;;;5094436;28;1539;-71
2022/02/20 11:14:41;;;;;;;;;;;;;;;;;;5079693;28;1487;-72
2022/02/20 11:17:07;;;;;;;;;;;;;;;;;;5109210;28;1326;-72
2022/02/20 11:19:35;;;;;;;;;;;;;;;;;;5109076;28;1120;-71
2022/02/20 11:22:03;;;;;;;;;;;;;;;;;;5108670;28;1479;-71
2022/02/20 11:24:29;;;;;;;;;;;;;;;;;;5108925;28;888;-72
2022/02/20 11:26:56;;;;;;;;;;;;;;;;;;5098278;28;1531;-70
2022/02/20 11:29:22;;;;;;;;;;;;;;;;;;5103135;28;1918;-71
2022/02/20 11:31:50;;;;;;;;;;;;;;;;;;5089881;28;1421;-70
2022/02/20 11:34:16;;;;;;;;;;;;;;;;;;5101899;28;1200;-70
2022/02/20 11:36:50;;;;;;;;;;;;;;;;;;5109224;28;1345;-70
2022/02/20 11:39:16;;;;;;;;;;;;;;;;;;5098752;28;1389;-71
2022/02/20 11:42:02;;;;;;;;;;;;;;;;;;5092042;28;1467;-70
2022/02/20 11:44:29;;;;;;;;;;;;;;;;;;5096446;28;1520;-71
2022/02/20 11:46:56;;;;;;;;;;;;;;;;;;5108260;28;1520;-72
2022/02/20 11:49:27;;;;;;;;;;;;;;;;;;5090936;28;1913;-72
2022/02/20 11:51:57;;;;;;;;;;;;;;;;;;5090484;28;1042;-71
2022/02/20 11:54:24;;;;;;;;;;;;;;;;;;5090868;28;1094;-72
2022/02/20 11:57:05;;;;;;;;;;;;;;;;;;5090656;28;920;-72
2022/02/20 11:59:31;;;;;;;;;;;;;;;;;;5089593;28;1102;-72
2022/02/20 12:02:12;;;;;;;;;;;;;;;;;;5090610;28;790;-70
2022/02/20 12:05:06;;;;;;;;;;;;;;;;;;5090710;28;1097;-72
2022/02/20 12:07:32;;;;;;;;;;;;;;;;;;5090425;28;1347;-72
2022/02/20 12:10:13;;;;;;;;;;;;;;;;;;5090274;28;1918;-72
2022/02/20 12:12:40;;;;;;;;;;;;;;;;;;5089730;28;1132;-73
2022/02/20 12:15:25;;;;;;;;;;;;;;;;;;5090442;28;1086;-73
2022/02/20 12:18:02;;;;;;;;;;;;;;;;;;5091544;28;1384;-73
2022/02/20 12:20:46;;;;;;;;;;;;;;;;;;5093011;28;1399;-73
2022/02/20 12:23:21;;;;;;;;;;;;;;;;;;5110846;28;1066;-73
2022/02/20 12:25:47;;;;;;;;;;;;;;;;;;5110412;28;1442;-71
2022/02/20 12:28:13;;;;;;;;;;;;;;;;;;5110908;28;1349;-74
2022/02/20 12:30:40;;;;;;;;;;;;;;;;;;5092180;28;1977;-72
2022/02/20 12:33:07;;;;;;;;;;;;;;;;;;5108392;28;1332;-74
2022/02/20 12:35:33;;;;;;;;;;;;;;;;;;5072209;28;1221;-73
2022/02/20 12:38:00;;;;;;;;;;;;;;;;;;5090418;28;1305;-74
2022/02/20 12:40:27;;;;;;;;;;;;;;;;;;5073167;28;1333;-73
2022/02/20 12:42:58;;;;;;;;;;;;;;;;;;5090426;28;1098;-74
2022/02/20 12:45:26;;;;;;;;;;;;;;;;;;5094136;28;781;-73
2022/02/20 12:47:53;;;;;;;;;;;;;;;;;;5086029;28;1499;-72
2022/02/20 12:50:23;;;;;;;;;;;;;;;;;;5114165;28;1914;-73
2022/02/20 12:52:49;;;;;;;;;;;;;;;;;;5114252;28;1086;-73
2022/02/20 12:55:17;;;;;;;;;;;;;;;;;;5114721;28;971;-73
2022/02/20 12:57:44;;;;;;;;;;;;;;;;;;5114292;28;1374;-73
2022/02/20 13:00:12;;;;;;;;;;;;;;;;;;5095890;28;1408;-73
2022/02/20 13:02:42;;;;;;;;;;;;;;;;;;5114189;28;1082;-72
2022/02/20 13:05:09;;;;;;;;;;;;;;;;;;5113242;28;1352;-73
2022/02/20 13:07:41;;;;;;;;;;;;;;;;;;5113120;28;1400;-73
2022/02/20 13:10:08;;;;;;;;;;;;;;;;;;5113839;28;1974;-73
2022/02/20 13:12:34;;;;;;;;;;;;;;;;;;5112700;28;1343;-73
2022/02/20 13:15:00;;;;;;;;;;;;;;;;;;5113990;28;872;-74
2022/02/20 13:17:43;;;;;;;;;;;;;;;;;;5095479;28;1471;-73
2022/02/20 13:20:24;;;;;;;;;;;;;;;;;;5095147;28;825;-73
2022/02/20 13:22:51;;;;;;;;;;;;;;;;;;5111919;28;1273;-73
2022/02/20 13:25:18;;;;;;;;;;;;;;;;;;5112430;28;1117;-73
2022/02/20 13:27:44;;;;;;;;;;;;;;;;;;5111640;28;1433;-73
2022/02/20 13:30:12;;;;;;;;;;;;;;;;;;5106513;28;1914;-72
2022/02/20 13:32:38;;;;;;;;;;;;;;;;;;5098891;28;1495;-70
2022/02/20 13:35:05;;;;;;;;;;;;;;;;;;5093181;28;1504;-73
2022/02/20 13:37:31;;;;;;;;;;;;;;;;;;5099974;28;1515;-73
2022/02/20 13:39:59;;;;;;;;;;;;;;;;;;5094156;28;1582;-73
2022/02/20 13:42:25;;;;;;;;;;;;;;;;;;5075136;28;1504;-71
2022/02/20 13:44:51;;;;;;;;;;;;;;;;;;5096633;28;1551;-73
2022/02/20 13:47:18;;;;;;;;;;;;;;;;;;5092015;28;2179;-73
2022/02/20 13:49:44;;;;;;;;;;;;;;;;;;5074179;28;1906;-72
2022/02/20 13:52:10;;;;;;;;;;;;;;;;;;5093008;28;936;-73
2022/02/20 13:54:37;;;;;;;;;;;;;;;;;;5074416;28;1352;-72
2022/02/20 13:57:04;;;;;;;;;;;;;;;;;;5092568;28;1372;-72
2022/02/20 13:59:33;;;;;;;;;;;;;;;;;;5092629;28;798;-74
2022/02/20 14:02:00;;;;;;;;;;;;;;;;;;5072955;28;1378;-73
2022/02/20 14:04:27;;;;;;;;;;;;;;;;;;5092217;28;1090;-73
2022/02/20 14:07:00;;;;;;;;;;;;;;;;;;5092335;28;1078;-73
2022/02/20 14:09:26;;;;;;;;;;;;;;;;;;5074306;28;1921;-74
2022/02/20 14:12:07;;;;;;;;;;;;;;;;;;5092289;28;916;-74
2022/02/20 14:14:35;;;;;;;;;;;;;;;;;;5092905;28;1030;-73
2022/02/20 14:17:01;;;;;;;;;;;;;;;;;;5093634;28;1316;-74
2022/02/20 14:19:27;;;;;;;;;;;;;;;;;;5092381;28;1149;-74
2022/02/20 14:21:54;;;;;;;;;;;;;;;;;;5092140;28;979;-73
2022/02/20 14:24:21;;;;;;;;;;;;;;;;;;5092294;28;1106;-74
2022/02/20 14:26:47;;;;;;;;;;;;;;;;;;5092133;28;1081;-73
2022/02/20 14:29:13;;;;;;;;;;;;;;;;;;5092354;28;1906;-73
2022/02/20 14:31:41;;;;;;;;;;;;;;;;;;5092097;28;1027;-73
2022/02/20 14:34:17;;;;;;;;;;;;;;;;;;5092240;28;806;-74
2022/02/20 14:36:43;;;;;;;;;;;;;;;;;;5092143;28;1082;-73
2022/02/20 14:39:11;;;;;;;;;;;;;;;;;;5091971;28;1313;-73
2022/02/20 14:41:37;;;;;;;;;;;;;;;;;;5074934;28;1111;-72
2022/02/20 14:44:04;;;;;;;;;;;;;;;;;;5092011;28;971;-73
2022/02/20 14:46:30;;;;;;;;;;;;;;;;;;5092019;28;1087;-73
2022/02/20 14:48:59;;;;;;;;;;;;;;;;;;5074030;28;1488;-73
2022/02/20 14:51:27;;;;;;;;;;;;;;;;;;5091611;28;1918;-73
2022/02/20 14:53:53;;;;;;;;;;;;;;;;;;5092109;28;868;-73
2022/02/20 14:56:20;;;;;;;;;;;;;;;;;;5091743;28;959;-73
2022/02/20 14:58:46;;;;;;;;;;;;;;;;;;5091492;28;1328;-74
2022/02/20 15:01:12;;;;;;;;;;;;;;;;;;5091434;28;835;-73
2022/02/20 15:03:39;;;;;;;;;;;;;;;;;;5091354;28;1179;-73
2022/02/20 15:06:06;;;;;;;;;;;;;;;;;;5091018;28;920;-73
2022/02/20 15:08:32;;;;;;;;;;;;;;;;;;5091250;28;1333;-74
2022/02/20 15:10:59;;;;;;;;;;;;;;;;;;5090998;28;1914;-73
2022/02/20 15:13:25;;;;;;;;;;;;;;;;;;5091259;28;1077;-73
2022/02/20 15:15:52;;;;;;;;;;;;;;;;;;5091294;28;959;-72
2022/02/20 15:18:18;;;;;;;;;;;;;;;;;;5073014;28;1329;-72
2022/02/20 15:20:44;;;;;;;;;;;;;;;;;;5090943;28;1074;-72
2022/02/20 15:23:11;;;;;;;;;;;;;;;;;;5091215;28;729;-72
2022/02/20 15:25:38;;;;;;;;;;;;;;;;;;5091137;28;1026;-72
2022/02/20 15:28:05;;;;;;;;;;;;;;;;;;5096533;28;1424;-72
2022/02/20 15:30:31;;;;;;;;;;;;;;;;;;5090690;28;1969;-72
2022/02/20 15:32:57;;;;;;;;;;;;;;;;;;5099296;28;1504;-74
2022/02/20 15:35:27;;;;;;;;;;;;;;;;;;5091539;28;1570;-74
2022/02/20 15:37:53;;;;;;;;;;;;;;;;;;5107898;28;1494;-74
2022/02/20 15:40:21;;;;;;;;;;;;;;;;;;5111289;28;781;-75
2022/02/20 15:42:48;;;;;;;;;;;;;;;;;;5107233;28;2038;-74
2022/02/20 15:45:16;;;;;;;;;;;;;;;;;;5112910;22;3577;-71
2022/02/20 15:47:42;;;;;;;;;;;;;;;;;;5090394;28;976;-71
2022/02/20 15:50:08;;;;;;;;;;;;;;;;;;5088849;28;1969;-71
2022/02/20 15:52:35;;;;;;;;;;;;;;;;;;5060829;28;1568;-71
2022/02/20 15:55:01;;;;;;;;;;;;;;;;;;5090647;28;1485;-71
2022/02/20 15:57:28;;;;;;;;;;;;;;;;;;5081194;28;1493;-72
2022/02/20 15:59:54;;;;;;;;;;;;;;;;;;5090876;28;1377;-71
2022/02/20 16:02:21;;;;;;;;;;;;;;;;;;5056206;28;1615;-72
2022/02/20 16:04:47;;;;;;;;;;;;;;;;;;5071651;28;1686;-71
2022/02/20 16:07:13;;;;;;;;;;;;;;;;;;5072179;28;1583;-71
2022/02/20 16:09:40;;;;;;;;;;;;;;;;;;5071748;28;1472;-70
2022/02/20 16:12:06;;;;;;;;;;;;;;;;;;5070710;28;1977;-71
2022/02/20 16:14:35;;;;;;;;;;;;;;;;;;5070454;28;1380;-71
2022/02/20 16:17:01;;;;;;;;;;;;;;;;;;5052727;28;1235;-71
2022/02/20 16:19:28;;;;;;;;;;;;;;;;;;5072407;28;1227;-70
2022/02/20 16:21:54;;;;;;;;;;;;;;;;;;5056149;28;1214;-71
2022/02/20 16:24:21;;;;;;;;;;;;;;;;;;5074264;28;1440;-71
2022/02/20 16:26:47;;;;;;;;;;;;;;;;;;5074334;28;984;-71
2022/02/20 16:29:14;;;;;;;;;;;;;;;;;;5074196;28;1127;-71
2022/02/20 16:31:42;;;;;;;;;;;;;;;;;;5056965;28;1973;-71
2022/02/20 16:34:09;;;;;;;;;;;;;;;;;;5073944;28;1350;-71
2022/02/20 16:36:35;;;;;;;;;;;;;;;;;;5074035;28;1059;-71
2022/02/20 16:39:01;;;;;;;;;;;;;;;;;;5056075;28;1206;-71
2022/02/20 16:41:27;;;;;;;;;;;;;;;;;;5078526;28;1413;-72
2022/02/20 16:43:54;;;;;;;;;;;;;;;;;;5094225;28;1339;-72
2022/02/20 16:46:24;;;;;;;;;;;;;;;;;;5094952;28;1066;-72
2022/02/20 16:48:52;;;;;;;;;;;;;;;;;;5096187;28;1102;-71
2022/02/20 16:51:18;;;;;;;;;;;;;;;;;;5092649;28;1917;-71
2022/02/20 16:53:44;;;;;;;;;;;;;;;;;;5074200;28;1601;-71
2022/02/20 16:56:10;;;;;;;;;;;;;;;;;;5072872;28;1544;-73
2022/02/20 16:58:38;;;;;;;;;;;;;;;;;;5053577;28;1183;-71
2022/02/20 17:01:06;;;;;;;;;;;;;;;;;;5071445;28;897;-73
2022/02/20 17:03:32;;;;;;;;;;;;;;;;;;5071463;28;1334;-73
2022/02/20 17:06:00;;;;;;;;;;;;;;;;;;5072070;28;881;-72
2022/02/20 17:08:26;;;;;;;;;;;;;;;;;;5071776;28;847;-73
2022/02/20 17:10:52;;;;;;;;;;;;;;;;;;5054803;28;1977;-73
2022/02/20 17:13:19;;;;;;;;;;;;;;;;;;5071827;28;1138;-73
2022/02/20 17:15:45;;;;;;;;;;;;;;;;;;5072585;28;1481;-73
2022/02/20 17:18:11;;;;;;;;;;;;;;;;;;5088648;28;1464;-72